Terminal Aerodrome Forecast
Issued by NWS Milwaukee/Sullivan, WI

Home | Current Version | Previous Version | Text Only | Print | Product List | Glossary On
Versions: 1 2 3 4 5 6 7 8 9 10 11 12 13 14 15 16 17 18 19 20 21 22 23 24 25 26 27
000
FTUS43 KMKX 302136 AAB
TAFMSN
TAF AMD
KMSN 302136Z 3022/0118 08014G25KT 5SM -RA SCT017 OVC040
     FM302230 07014G24KT 3SM RA OVC025
     FM010000 05013G23KT 3SM RA OVC020
     FM010100 05014G22KT 3SM RA OVC015
     FM010500 04012KT P6SM VCSH OVC015
     FM010900 04010KT P6SM VCSH OVC008
     FM011700 04012G21KT P6SM OVC010=

USA.gov is the U.S. government's official web portal to all federal, state and local government web resources and services.